sensor_id;sensor_type;location;lat;lon;timestamp;P1;durP1;ratioP1;P2;durP2;ratioP2
9214;SDS011;4642;51.364;6.788;2023-02-28T00:00:15;5.17;;;3.17;;
9214;SDS011;4642;51.364;6.788;2023-02-28T00:02:41;3.60;;;2.97;;
9214;SDS011;4642;51.364;6.788;2023-02-28T00:05:08;4.53;;;3.23;;
9214;SDS011;4642;51.364;6.788;2023-02-28T00:07:35;8.73;;;3.20;;
9214;SDS011;4642;51.364;6.788;2023-02-28T00:10:02;4.13;;;2.73;;
9214;SDS011;4642;51.364;6.788;2023-02-28T00:12:28;4.37;;;3.17;;
9214;SDS011;4642;51.364;6.788;2023-02-28T00:14:54;8.83;;;3.53;;
9214;SDS011;4642;51.364;6.788;2023-02-28T00:17:20;5.30;;;3.23;;
9214;SDS011;4642;51.364;6.788;2023-02-28T00:19:48;4.10;;;3.50;;
9214;SDS011;4642;51.364;6.788;2023-02-28T00:22:15;9.37;;;3.60;;
9214;SDS011;4642;51.364;6.788;2023-02-28T00:24:42;6.07;;;3.50;;
9214;SDS011;4642;51.364;6.788;2023-02-28T00:27:07;5.57;;;3.23;;
9214;SDS011;4642;51.364;6.788;2023-02-28T00:29:33;5.37;;;3.20;;
9214;SDS011;4642;51.364;6.788;2023-02-28T00:31:59;5.33;;;3.30;;
9214;SDS011;4642;51.364;6.788;2023-02-28T00:34:24;8.33;;;3.70;;
9214;SDS011;4642;51.364;6.788;2023-02-28T00:36:50;6.40;;;3.23;;
9214;SDS011;4642;51.364;6.788;2023-02-28T00:39:15;5.07;;;3.70;;
9214;SDS011;4642;51.364;6.788;2023-02-28T00:41:41;6.90;;;3.60;;
9214;SDS011;4642;51.364;6.788;2023-02-28T00:44:07;6.17;;;3.50;;
9214;SDS011;4642;51.364;6.788;2023-02-28T00:46:32;4.70;;;3.03;;
9214;SDS011;4642;51.364;6.788;2023-02-28T00:48:58;5.53;;;3.43;;
9214;SDS011;4642;51.364;6.788;2023-02-28T00:51:24;6.83;;;3.80;;
9214;SDS011;4642;51.364;6.788;2023-02-28T00:53:49;7.33;;;3.03;;
9214;SDS011;4642;51.364;6.788;2023-02-28T00:56:15;4.37;;;3.03;;
9214;SDS011;4642;51.364;6.788;2023-02-28T00:58:40;5.13;;;3.20;;
9214;SDS011;4642;51.364;6.788;2023-02-28T01:01:06;2.87;;;2.57;;
9214;SDS011;4642;51.364;6.788;2023-02-28T01:03:32;3.77;;;3.10;;
9214;SDS011;4642;51.364;6.788;2023-02-28T01:05:58;5.57;;;3.23;;
9214;SDS011;4642;51.364;6.788;2023-02-28T01:08:23;6.40;;;3.27;;
9214;SDS011;4642;51.364;6.788;2023-02-28T01:10:50;6.63;;;3.10;;
9214;SDS011;4642;51.364;6.788;2023-02-28T01:13:16;4.67;;;3.57;;
9214;SDS011;4642;51.364;6.788;2023-02-28T01:15:52;6.00;;;3.70;;
9214;SDS011;4642;51.364;6.788;2023-02-28T01:18:20;7.13;;;3.93;;
9214;SDS011;4642;51.364;6.788;2023-02-28T01:20:47;4.83;;;3.27;;
9214;SDS011;4642;51.364;6.788;2023-02-28T01:23:13;4.90;;;3.40;;
9214;SDS011;4642;51.364;6.788;2023-02-28T01:25:39;9.70;;;3.83;;
9214;SDS011;4642;51.364;6.788;2023-02-28T01:28:04;6.50;;;4.37;;
9214;SDS011;4642;51.364;6.788;2023-02-28T01:30:31;4.93;;;3.43;;
9214;SDS011;4642;51.364;6.788;2023-02-28T01:32:57;7.20;;;4.30;;
9214;SDS011;4642;51.364;6.788;2023-02-28T01:35:23;5.87;;;3.77;;
9214;SDS011;4642;51.364;6.788;2023-02-28T01:37:49;7.90;;;3.83;;
9214;SDS011;4642;51.364;6.788;2023-02-28T01:40:14;6.07;;;3.70;;
9214;SDS011;4642;51.364;6.788;2023-02-28T01:42:40;5.50;;;3.60;;
9214;SDS011;4642;51.364;6.788;2023-02-28T01:45:48;7.03;;;3.93;;
9214;SDS011;4642;51.364;6.788;2023-02-28T01:47:59;5.33;;;3.57;;
9214;SDS011;4642;51.364;6.788;2023-02-28T01:50:34;4.47;;;3.47;;
9214;SDS011;4642;51.364;6.788;2023-02-28T01:53:05;5.00;;;3.60;;
9214;SDS011;4642;51.364;6.788;2023-02-28T01:55:32;5.37;;;3.40;;
9214;SDS011;4642;51.364;6.788;2023-02-28T01:58:00;5.00;;;3.47;;
9214;SDS011;4642;51.364;6.788;2023-02-28T02:00:29;6.67;;;3.37;;
9214;SDS011;4642;51.364;6.788;2023-02-28T02:02:58;5.17;;;3.43;;
9214;SDS011;4642;51.364;6.788;2023-02-28T02:05:29;5.30;;;3.67;;
9214;SDS011;4642;51.364;6.788;2023-02-28T02:07:57;8.67;;;3.90;;
9214;SDS011;4642;51.364;6.788;2023-02-28T02:10:29;4.47;;;3.20;;
9214;SDS011;4642;51.364;6.788;2023-02-28T02:18:52;6.30;;;3.50;;
9214;SDS011;4642;51.364;6.788;2023-02-28T02:29:58;5.27;;;3.17;;
9214;SDS011;4642;51.364;6.788;2023-02-28T02:46:20;3.97;;;2.77;;
9214;SDS011;4642;51.364;6.788;2023-02-28T02:48:59;4.23;;;2.83;;
9214;SDS011;4642;51.364;6.788;2023-02-28T02:51:29;4.67;;;2.93;;
9214;SDS011;4642;51.364;6.788;2023-02-28T02:53:58;5.23;;;3.03;;
9214;SDS011;4642;51.364;6.788;2023-02-28T02:56:33;5.23;;;3.47;;
9214;SDS011;4642;51.364;6.788;2023-02-28T02:59:05;9.47;;;3.10;;
9214;SDS011;4642;51.364;6.788;2023-02-28T03:01:34;5.03;;;2.83;;
9214;SDS011;4642;51.364;6.788;2023-02-28T03:04:02;4.37;;;3.17;;
9214;SDS011;4642;51.364;6.788;2023-02-28T03:06:30;6.70;;;3.33;;
9214;SDS011;4642;51.364;6.788;2023-02-28T03:08:56;6.03;;;3.60;;
9214;SDS011;4642;51.364;6.788;2023-02-28T03:11:22;4.87;;;3.10;;
9214;SDS011;4642;51.364;6.788;2023-02-28T03:16:49;4.40;;;3.23;;
9214;SDS011;4642;51.364;6.788;2023-02-28T03:24:55;4.77;;;3.30;;
9214;SDS011;4642;51.364;6.788;2023-02-28T03:30:15;6.27;;;2.80;;
9214;SDS011;4642;51.364;6.788;2023-02-28T03:32:52;6.53;;;2.93;;
9214;SDS011;4642;51.364;6.788;2023-02-28T03:35:28;5.10;;;3.10;;
9214;SDS011;4642;51.364;6.788;2023-02-28T03:38:04;3.73;;;2.77;;
9214;SDS011;4642;51.364;6.788;2023-02-28T03:40:39;11.20;;;3.67;;
9214;SDS011;4642;51.364;6.788;2023-02-28T03:43:12;4.73;;;2.87;;
9214;SDS011;4642;51.364;6.788;2023-02-28T03:45:44;5.60;;;3.27;;
9214;SDS011;4642;51.364;6.788;2023-02-28T03:48:14;4.60;;;2.67;;
9214;SDS011;4642;51.364;6.788;2023-02-28T03:50:44;3.10;;;2.43;;
9214;SDS011;4642;51.364;6.788;2023-02-28T03:53:15;7.33;;;3.03;;
9214;SDS011;4642;51.364;6.788;2023-02-28T03:55:53;5.63;;;3.10;;
9214;SDS011;4642;51.364;6.788;2023-02-28T04:01:07;7.23;;;3.23;;
9214;SDS011;4642;51.364;6.788;2023-02-28T04:03:56;4.37;;;2.60;;
9214;SDS011;4642;51.364;6.788;2023-02-28T04:06:22;3.93;;;3.20;;
9214;SDS011;4642;51.364;6.788;2023-02-28T04:08:49;4.47;;;2.70;;
9214;SDS011;4642;51.364;6.788;2023-02-28T04:11:18;6.30;;;3.33;;
9214;SDS011;4642;51.364;6.788;2023-02-28T04:14:02;4.63;;;2.93;;
9214;SDS011;4642;51.364;6.788;2023-02-28T04:16:29;5.80;;;3.13;;
9214;SDS011;4642;51.364;6.788;2023-02-28T04:18:56;4.53;;;3.20;;
9214;SDS011;4642;51.364;6.788;2023-02-28T04:21:27;8.37;;;3.43;;
9214;SDS011;4642;51.364;6.788;2023-02-28T04:23:54;3.93;;;2.87;;
9214;SDS011;4642;51.364;6.788;2023-02-28T04:26:19;8.30;;;3.60;;
9214;SDS011;4642;51.364;6.788;2023-02-28T04:28:45;5.60;;;3.50;;
9214;SDS011;4642;51.364;6.788;2023-02-28T04:31:10;7.20;;;3.23;;
9214;SDS011;4642;51.364;6.788;2023-02-28T04:33:36;5.13;;;3.10;;
9214;SDS011;4642;51.364;6.788;2023-02-28T04:36:03;5.37;;;2.90;;
9214;SDS011;4642;51.364;6.788;2023-02-28T04:38:34;4.27;;;2.77;;
9214;SDS011;4642;51.364;6.788;2023-02-28T04:41:01;4.03;;;2.93;;
9214;SDS011;4642;51.364;6.788;2023-02-28T04:43:28;5.30;;;3.00;;
9214;SDS011;4642;51.364;6.788;2023-02-28T04:45:54;3.67;;;2.87;;
9214;SDS011;4642;51.364;6.788;2023-02-28T04:48:24;6.13;;;3.30;;
9214;SDS011;4642;51.364;6.788;2023-02-28T04:50:51;5.80;;;3.00;;
9214;SDS011;4642;51.364;6.788;2023-02-28T04:53:17;4.93;;;3.00;;
9214;SDS011;4642;51.364;6.788;2023-02-28T04:55:43;4.60;;;3.03;;
9214;SDS011;4642;51.364;6.788;2023-02-28T04:58:09;4.10;;;2.60;;
9214;SDS011;4642;51.364;6.788;2023-02-28T05:00:34;3.40;;;2.80;;
9214;SDS011;4642;51.364;6.788;2023-02-28T05:03:00;6.83;;;3.40;;
9214;SDS011;4642;51.364;6.788;2023-02-28T05:05:26;7.93;;;3.17;;
9214;SDS011;4642;51.364;6.788;2023-02-28T05:07:51;5.07;;;2.83;;
9214;SDS011;4642;51.364;6.788;2023-02-28T05:10:18;4.27;;;2.80;;
9214;SDS011;4642;51.364;6.788;2023-02-28T05:12:44;5.67;;;2.93;;
9214;SDS011;4642;51.364;6.788;2023-02-28T05:15:12;3.23;;;2.40;;
9214;SDS011;4642;51.364;6.788;2023-02-28T05:17:39;4.67;;;3.33;;
9214;SDS011;4642;51.364;6.788;2023-02-28T05:20:05;6.30;;;3.13;;
9214;SDS011;4642;51.364;6.788;2023-02-28T05:22:31;5.90;;;2.70;;
9214;SDS011;4642;51.364;6.788;2023-02-28T05:24:57;4.50;;;2.90;;
9214;SDS011;4642;51.364;6.788;2023-02-28T05:27:23;4.03;;;2.70;;
9214;SDS011;4642;51.364;6.788;2023-02-28T05:29:48;3.57;;;2.50;;
9214;SDS011;4642;51.364;6.788;2023-02-28T05:32:14;5.63;;;3.20;;
9214;SDS011;4642;51.364;6.788;2023-02-28T05:34:40;5.00;;;2.87;;
9214;SDS011;4642;51.364;6.788;2023-02-28T05:37:10;3.77;;;2.23;;
9214;SDS011;4642;51.364;6.788;2023-02-28T05:39:37;4.50;;;2.53;;
9214;SDS011;4642;51.364;6.788;2023-02-28T05:42:03;4.23;;;3.20;;
9214;SDS011;4642;51.364;6.788;2023-02-28T05:44:29;2.93;;;2.50;;
9214;SDS011;4642;51.364;6.788;2023-02-28T05:46:55;3.57;;;2.97;;
9214;SDS011;4642;51.364;6.788;2023-02-28T05:49:20;4.30;;;2.57;;
9214;SDS011;4642;51.364;6.788;2023-02-28T05:51:46;4.33;;;2.50;;
9214;SDS011;4642;51.364;6.788;2023-02-28T05:54:11;5.63;;;3.10;;
9214;SDS011;4642;51.364;6.788;2023-02-28T05:56:37;4.63;;;2.83;;
9214;SDS011;4642;51.364;6.788;2023-02-28T05:59:04;9.63;;;3.03;;
9214;SDS011;4642;51.364;6.788;2023-02-28T06:01:32;3.83;;;2.93;;
9214;SDS011;4642;51.364;6.788;2023-02-28T06:04:04;4.03;;;2.93;;
9214;SDS011;4642;51.364;6.788;2023-02-28T06:06:31;4.50;;;2.80;;
9214;SDS011;4642;51.364;6.788;2023-02-28T06:08:59;3.63;;;2.43;;
9214;SDS011;4642;51.364;6.788;2023-02-28T06:11:25;3.57;;;2.40;;
9214;SDS011;4642;51.364;6.788;2023-02-28T06:13:58;6.13;;;2.70;;
9214;SDS011;4642;51.364;6.788;2023-02-28T06:16:26;4.20;;;2.57;;
9214;SDS011;4642;51.364;6.788;2023-02-28T06:18:52;7.00;;;2.57;;
9214;SDS011;4642;51.364;6.788;2023-02-28T06:21:20;5.43;;;2.87;;
9214;SDS011;4642;51.364;6.788;2023-02-28T06:23:46;4.70;;;2.37;;
9214;SDS011;4642;51.364;6.788;2023-02-28T06:26:11;3.70;;;2.60;;
9214;SDS011;4642;51.364;6.788;2023-02-28T06:28:37;4.47;;;2.73;;
9214;SDS011;4642;51.364;6.788;2023-02-28T06:31:06;3.40;;;2.60;;
9214;SDS011;4642;51.364;6.788;2023-02-28T06:33:36;3.17;;;2.60;;
9214;SDS011;4642;51.364;6.788;2023-02-28T06:36:03;4.97;;;2.83;;
9214;SDS011;4642;51.364;6.788;2023-02-28T06:38:29;5.20;;;2.73;;
9214;SDS011;4642;51.364;6.788;2023-02-28T06:40:55;2.97;;;2.00;;
9214;SDS011;4642;51.364;6.788;2023-02-28T06:43:22;9.03;;;3.03;;
9214;SDS011;4642;51.364;6.788;2023-02-28T06:45:49;3.07;;;2.57;;
9214;SDS011;4642;51.364;6.788;2023-02-28T06:48:15;3.27;;;2.87;;
9214;SDS011;4642;51.364;6.788;2023-02-28T06:50:41;3.10;;;2.50;;
9214;SDS011;4642;51.364;6.788;2023-02-28T06:53:07;3.53;;;2.33;;
9214;SDS011;4642;51.364;6.788;2023-02-28T06:55:32;3.83;;;2.43;;
9214;SDS011;4642;51.364;6.788;2023-02-28T06:57:58;7.90;;;3.03;;
9214;SDS011;4642;51.364;6.788;2023-02-28T07:00:24;6.97;;;2.30;;
9214;SDS011;4642;51.364;6.788;2023-02-28T07:02:50;4.50;;;2.57;;
9214;SDS011;4642;51.364;6.788;2023-02-28T07:05:15;5.60;;;2.70;;
9214;SDS011;4642;51.364;6.788;2023-02-28T07:07:41;3.50;;;2.33;;
9214;SDS011;4642;51.364;6.788;2023-02-28T07:10:11;3.20;;;2.50;;
9214;SDS011;4642;51.364;6.788;2023-02-28T07:12:39;2.50;;;2.30;;
9214;SDS011;4642;51.364;6.788;2023-02-28T07:15:05;4.80;;;2.37;;
9214;SDS011;4642;51.364;6.788;2023-02-28T07:17:31;3.97;;;2.57;;
9214;SDS011;4642;51.364;6.788;2023-02-28T07:19:56;3.27;;;2.67;;
9214;SDS011;4642;51.364;6.788;2023-02-28T07:22:22;4.10;;;2.70;;
9214;SDS011;4642;51.364;6.788;2023-02-28T07:24:47;2.67;;;2.20;;
9214;SDS011;4642;51.364;6.788;2023-02-28T07:27:13;6.50;;;2.47;;
9214;SDS011;4642;51.364;6.788;2023-02-28T07:29:48;6.40;;;2.67;;
9214;SDS011;4642;51.364;6.788;2023-02-28T07:32:14;6.40;;;2.50;;
9214;SDS011;4642;51.364;6.788;2023-02-28T07:34:40;10.10;;;3.20;;
9214;SDS011;4642;51.364;6.788;2023-02-28T07:37:05;4.50;;;2.43;;
9214;SDS011;4642;51.364;6.788;2023-02-28T07:39:31;3.87;;;2.40;;
9214;SDS011;4642;51.364;6.788;2023-02-28T07:41:56;5.23;;;2.80;;
9214;SDS011;4642;51.364;6.788;2023-02-28T07:44:22;3.80;;;2.50;;
9214;SDS011;4642;51.364;6.788;2023-02-28T07:46:47;4.77;;;3.00;;
9214;SDS011;4642;51.364;6.788;2023-02-28T07:49:13;5.47;;;3.40;;
9214;SDS011;4642;51.364;6.788;2023-02-28T07:51:38;4.73;;;3.20;;
9214;SDS011;4642;51.364;6.788;2023-02-28T07:54:04;4.67;;;3.13;;
9214;SDS011;4642;51.364;6.788;2023-02-28T07:56:30;6.23;;;2.97;;
9214;SDS011;4642;51.364;6.788;2023-02-28T07:58:55;4.43;;;3.20;;
9214;SDS011;4642;51.364;6.788;2023-02-28T08:01:21;3.27;;;2.83;;
9214;SDS011;4642;51.364;6.788;2023-02-28T08:03:47;7.97;;;3.60;;
9214;SDS011;4642;51.364;6.788;2023-02-28T08:06:22;4.30;;;2.77;;
9214;SDS011;4642;51.364;6.788;2023-02-28T08:08:49;5.03;;;3.43;;
9214;SDS011;4642;51.364;6.788;2023-02-28T08:11:15;9.63;;;4.03;;
9214;SDS011;4642;51.364;6.788;2023-02-28T08:13:42;5.33;;;3.30;;
9214;SDS011;4642;51.364;6.788;2023-02-28T08:16:08;7.10;;;3.57;;
9214;SDS011;4642;51.364;6.788;2023-02-28T08:18:35;5.77;;;3.50;;
9214;SDS011;4642;51.364;6.788;2023-02-28T08:21:09;5.93;;;3.57;;
9214;SDS011;4642;51.364;6.788;2023-02-28T08:23:36;6.30;;;4.20;;
9214;SDS011;4642;51.364;6.788;2023-02-28T08:26:01;6.63;;;3.57;;
9214;SDS011;4642;51.364;6.788;2023-02-28T08:28:27;5.37;;;2.90;;
9214;SDS011;4642;51.364;6.788;2023-02-28T08:30:53;6.13;;;3.60;;
9214;SDS011;4642;51.364;6.788;2023-02-28T08:33:19;7.67;;;3.97;;
9214;SDS011;4642;51.364;6.788;2023-02-28T08:35:45;3.67;;;2.83;;
9214;SDS011;4642;51.364;6.788;2023-02-28T08:38:11;5.30;;;3.53;;
9214;SDS011;4642;51.364;6.788;2023-02-28T08:40:36;3.90;;;2.93;;
9214;SDS011;4642;51.364;6.788;2023-02-28T08:43:02;13.10;;;3.40;;
9214;SDS011;4642;51.364;6.788;2023-02-28T08:45:28;4.37;;;2.97;;
9214;SDS011;4642;51.364;6.788;2023-02-28T08:47:54;4.73;;;3.10;;
9214;SDS011;4642;51.364;6.788;2023-02-28T08:50:20;5.33;;;3.47;;
9214;SDS011;4642;51.364;6.788;2023-02-28T08:52:47;5.17;;;2.90;;
9214;SDS011;4642;51.364;6.788;2023-02-28T08:55:12;4.20;;;3.17;;
9214;SDS011;4642;51.364;6.788;2023-02-28T08:57:38;4.03;;;2.63;;
9214;SDS011;4642;51.364;6.788;2023-02-28T09:00:04;4.30;;;2.80;;
9214;SDS011;4642;51.364;6.788;2023-02-28T09:02:30;5.10;;;2.70;;
9214;SDS011;4642;51.364;6.788;2023-02-28T09:04:56;4.40;;;2.77;;
9214;SDS011;4642;51.364;6.788;2023-02-28T09:07:22;3.67;;;2.40;;
9214;SDS011;4642;51.364;6.788;2023-02-28T09:09:49;3.23;;;2.30;;
9214;SDS011;4642;51.364;6.788;2023-02-28T09:12:21;3.87;;;2.43;;
9214;SDS011;4642;51.364;6.788;2023-02-28T09:14:51;3.13;;;2.43;;
9214;SDS011;4642;51.364;6.788;2023-02-28T09:17:17;2.90;;;1.90;;
9214;SDS011;4642;51.364;6.788;2023-02-28T09:19:43;4.50;;;2.10;;
9214;SDS011;4642;51.364;6.788;2023-02-28T09:22:09;3.10;;;2.40;;
9214;SDS011;4642;51.364;6.788;2023-02-28T09:24:36;3.90;;;1.87;;
9214;SDS011;4642;51.364;6.788;2023-02-28T09:27:02;2.47;;;1.67;;
9214;SDS011;4642;51.364;6.788;2023-02-28T09:29:29;3.00;;;1.80;;
9214;SDS011;4642;51.364;6.788;2023-02-28T09:31:55;2.20;;;1.70;;
9214;SDS011;4642;51.364;6.788;2023-02-28T09:34:23;4.20;;;1.77;;
9214;SDS011;4642;51.364;6.788;2023-02-28T09:36:49;2.70;;;1.50;;
9214;SDS011;4642;51.364;6.788;2023-02-28T09:39:19;3.33;;;1.83;;
9214;SDS011;4642;51.364;6.788;2023-02-28T09:41:47;1.67;;;1.50;;
9214;SDS011;4642;51.364;6.788;2023-02-28T09:44:20;3.23;;;1.80;;
9214;SDS011;4642;51.364;6.788;2023-02-28T09:46:52;3.80;;;2.00;;
9214;SDS011;4642;51.364;6.788;2023-02-28T09:49:25;5.03;;;2.00;;
9214;SDS011;4642;51.364;6.788;2023-02-28T09:52:00;2.87;;;1.70;;
9214;SDS011;4642;51.364;6.788;2023-02-28T09:54:34;3.23;;;2.00;;
9214;SDS011;4642;51.364;6.788;2023-02-28T10:05:16;1.80;;;1.30;;
9214;SDS011;4642;51.364;6.788;2023-02-28T10:08:00;1.90;;;1.33;;
9214;SDS011;4642;51.364;6.788;2023-02-28T10:10:50;1.87;;;1.37;;
9214;SDS011;4642;51.364;6.788;2023-02-28T10:15:53;1.87;;;1.33;;
9214;SDS011;4642;51.364;6.788;2023-02-28T10:18:29;2.20;;;1.30;;
9214;SDS011;4642;51.364;6.788;2023-02-28T10:21:00;2.53;;;1.43;;
9214;SDS011;4642;51.364;6.788;2023-02-28T10:23:27;3.43;;;1.40;;
9214;SDS011;4642;51.364;6.788;2023-02-28T10:25:59;3.33;;;1.50;;
9214;SDS011;4642;51.364;6.788;2023-02-28T10:28:26;2.63;;;1.40;;
9214;SDS011;4642;51.364;6.788;2023-02-28T10:30:55;2.57;;;1.60;;
9214;SDS011;4642;51.364;6.788;2023-02-28T10:33:24;2.43;;;1.27;;
9214;SDS011;4642;51.364;6.788;2023-02-28T10:35:54;4.97;;;1.63;;
9214;SDS011;4642;51.364;6.788;2023-02-28T10:38:22;1.10;;;1.00;;
9214;SDS011;4642;51.364;6.788;2023-02-28T10:40:50;1.50;;;1.17;;
9214;SDS011;4642;51.364;6.788;2023-02-28T10:48:41;1.47;;;1.20;;
9214;SDS011;4642;51.364;6.788;2023-02-28T10:51:15;2.00;;;1.07;;
9214;SDS011;4642;51.364;6.788;2023-02-28T11:04:19;2.03;;;1.40;;
9214;SDS011;4642;51.364;6.788;2023-02-28T11:06:46;1.20;;;1.10;;
9214;SDS011;4642;51.364;6.788;2023-02-28T11:09:22;1.10;;;1.00;;
9214;SDS011;4642;51.364;6.788;2023-02-28T11:11:51;1.47;;;1.10;;
9214;SDS011;4642;51.364;6.788;2023-02-28T11:14:21;1.67;;;1.20;;
9214;SDS011;4642;51.364;6.788;2023-02-28T11:16:50;1.37;;;1.10;;
9214;SDS011;4642;51.364;6.788;2023-02-28T11:19:19;1.53;;;1.20;;
9214;SDS011;4642;51.364;6.788;2023-02-28T11:21:53;2.40;;;1.27;;
9214;SDS011;4642;51.364;6.788;2023-02-28T11:24:26;2.00;;;0.93;;
9214;SDS011;4642;51.364;6.788;2023-02-28T11:27:12;1.53;;;0.97;;
9214;SDS011;4642;51.364;6.788;2023-02-28T11:29:55;1.10;;;1.00;;
9214;SDS011;4642;51.364;6.788;2023-02-28T11:32:22;1.40;;;1.13;;
9214;SDS011;4642;51.364;6.788;2023-02-28T11:37:55;1.47;;;1.00;;
9214;SDS011;4642;51.364;6.788;2023-02-28T11:40:24;3.90;;;1.20;;
9214;SDS011;4642;51.364;6.788;2023-02-28T11:43:01;2.00;;;1.30;;
9214;SDS011;4642;51.364;6.788;2023-02-28T11:48:58;1.30;;;1.20;;
9214;SDS011;4642;51.364;6.788;2023-02-28T12:05:30;2.10;;;1.20;;
9214;SDS011;4642;51.364;6.788;2023-02-28T12:10:37;2.47;;;1.10;;
9214;SDS011;4642;51.364;6.788;2023-02-28T12:13:18;4.70;;;1.40;;
9214;SDS011;4642;51.364;6.788;2023-02-28T12:15:58;1.80;;;1.30;;
9214;SDS011;4642;51.364;6.788;2023-02-28T12:21:23;2.23;;;1.20;;
9214;SDS011;4642;51.364;6.788;2023-02-28T12:26:45;1.40;;;1.10;;
9214;SDS011;4642;51.364;6.788;2023-02-28T12:29:26;1.83;;;1.10;;
9214;SDS011;4642;51.364;6.788;2023-02-28T12:34:50;3.37;;;1.33;;
9214;SDS011;4642;51.364;6.788;2023-02-28T12:37:22;1.80;;;1.07;;
9214;SDS011;4642;51.364;6.788;2023-02-28T12:39:54;1.67;;;1.30;;
9214;SDS011;4642;51.364;6.788;2023-02-28T12:42:29;1.40;;;1.00;;
9214;SDS011;4642;51.364;6.788;2023-02-28T12:47:26;2.63;;;1.70;;
9214;SDS011;4642;51.364;6.788;2023-02-28T12:52:51;1.47;;;1.30;;
9214;SDS011;4642;51.364;6.788;2023-02-28T13:09:05;1.73;;;1.40;;
9214;SDS011;4642;51.364;6.788;2023-02-28T13:11:48;2.23;;;1.70;;
9214;SDS011;4642;51.364;6.788;2023-02-28T13:19:42;2.93;;;1.60;;
9214;SDS011;4642;51.364;6.788;2023-02-28T13:22:44;2.37;;;1.63;;
9214;SDS011;4642;51.364;6.788;2023-02-28T13:28:03;2.70;;;1.60;;
9214;SDS011;4642;51.364;6.788;2023-02-28T13:36:23;2.17;;;1.37;;
9214;SDS011;4642;51.364;6.788;2023-02-28T13:39:03;2.57;;;1.40;;
9214;SDS011;4642;51.364;6.788;2023-02-28T13:45:32;1.80;;;1.50;;
9214;SDS011;4642;51.364;6.788;2023-02-28T13:47:52;2.10;;;1.50;;
9214;SDS011;4642;51.364;6.788;2023-02-28T13:55:34;1.27;;;1.17;;
9214;SDS011;4642;51.364;6.788;2023-02-28T13:58:36;2.27;;;1.23;;
9214;SDS011;4642;51.364;6.788;2023-02-28T14:04:26;1.50;;;1.13;;
9214;SDS011;4642;51.364;6.788;2023-02-28T14:06:59;3.13;;;1.87;;
9214;SDS011;4642;51.364;6.788;2023-02-28T14:09:34;2.53;;;1.50;;
9214;SDS011;4642;51.364;6.788;2023-02-28T14:15:30;2.60;;;1.57;;
9214;SDS011;4642;51.364;6.788;2023-02-28T14:20:52;2.70;;;1.70;;
9214;SDS011;4642;51.364;6.788;2023-02-28T14:26:29;2.23;;;1.50;;
9214;SDS011;4642;51.364;6.788;2023-02-28T14:31:39;2.90;;;1.90;;
9214;SDS011;4642;51.364;6.788;2023-02-28T14:36:55;2.93;;;1.63;;
9214;SDS011;4642;51.364;6.788;2023-02-28T14:39:26;1.80;;;1.50;;
9214;SDS011;4642;51.364;6.788;2023-02-28T14:41:55;2.37;;;1.60;;
9214;SDS011;4642;51.364;6.788;2023-02-28T14:44:25;4.07;;;1.57;;
9214;SDS011;4642;51.364;6.788;2023-02-28T14:46:52;2.60;;;1.50;;
9214;SDS011;4642;51.364;6.788;2023-02-28T14:49:30;1.80;;;1.50;;
9214;SDS011;4642;51.364;6.788;2023-02-28T14:54:38;4.50;;;1.60;;
9214;SDS011;4642;51.364;6.788;2023-02-28T14:57:04;1.93;;;1.47;;
9214;SDS011;4642;51.364;6.788;2023-02-28T15:04:41;2.53;;;1.83;;
9214;SDS011;4642;51.364;6.788;2023-02-28T15:07:13;3.37;;;1.80;;
9214;SDS011;4642;51.364;6.788;2023-02-28T15:09:39;2.50;;;1.90;;
9214;SDS011;4642;51.364;6.788;2023-02-28T15:12:06;3.90;;;1.93;;
9214;SDS011;4642;51.364;6.788;2023-02-28T15:14:32;2.17;;;1.80;;
9214;SDS011;4642;51.364;6.788;2023-02-28T15:17:05;3.73;;;1.83;;
9214;SDS011;4642;51.364;6.788;2023-02-28T15:19:34;2.10;;;1.50;;
9214;SDS011;4642;51.364;6.788;2023-02-28T15:22:04;2.77;;;2.17;;
9214;SDS011;4642;51.364;6.788;2023-02-28T15:24:41;3.63;;;1.40;;
9214;SDS011;4642;51.364;6.788;2023-02-28T15:27:20;3.00;;;1.77;;
9214;SDS011;4642;51.364;6.788;2023-02-28T15:29:48;3.53;;;2.07;;
9214;SDS011;4642;51.364;6.788;2023-02-28T15:32:27;3.53;;;1.70;;
9214;SDS011;4642;51.364;6.788;2023-02-28T15:34:56;2.23;;;1.47;;
9214;SDS011;4642;51.364;6.788;2023-02-28T15:40:05;1.90;;;1.67;;
9214;SDS011;4642;51.364;6.788;2023-02-28T15:45:44;2.73;;;1.80;;
9214;SDS011;4642;51.364;6.788;2023-02-28T15:50:47;4.33;;;1.70;;
9214;SDS011;4642;51.364;6.788;2023-02-28T15:53:17;3.93;;;1.90;;
9214;SDS011;4642;51.364;6.788;2023-02-28T15:55:51;1.80;;;1.53;;
9214;SDS011;4642;51.364;6.788;2023-02-28T15:58:19;1.90;;;1.63;;
9214;SDS011;4642;51.364;6.788;2023-02-28T16:00:59;1.87;;;1.60;;
9214;SDS011;4642;51.364;6.788;2023-02-28T16:03:42;2.13;;;1.80;;
9214;SDS011;4642;51.364;6.788;2023-02-28T16:08:41;3.23;;;2.23;;
9214;SDS011;4642;51.364;6.788;2023-02-28T16:11:10;3.73;;;1.60;;
9214;SDS011;4642;51.364;6.788;2023-02-28T16:13:36;2.40;;;1.77;;
9214;SDS011;4642;51.364;6.788;2023-02-28T16:16:02;3.03;;;1.80;;
9214;SDS011;4642;51.364;6.788;2023-02-28T16:18:28;2.20;;;1.77;;
9214;SDS011;4642;51.364;6.788;2023-02-28T16:20:53;3.10;;;1.93;;
9214;SDS011;4642;51.364;6.788;2023-02-28T16:23:19;6.93;;;1.83;;
9214;SDS011;4642;51.364;6.788;2023-02-28T16:25:45;2.27;;;1.83;;
9214;SDS011;4642;51.364;6.788;2023-02-28T16:30:45;3.10;;;1.60;;
9214;SDS011;4642;51.364;6.788;2023-02-28T16:33:10;3.87;;;2.03;;
9214;SDS011;4642;51.364;6.788;2023-02-28T16:35:36;2.57;;;1.70;;
9214;SDS011;4642;51.364;6.788;2023-02-28T16:38:01;2.87;;;1.90;;
9214;SDS011;4642;51.364;6.788;2023-02-28T16:40:27;2.57;;;2.00;;
9214;SDS011;4642;51.364;6.788;2023-02-28T16:42:55;3.07;;;1.80;;
9214;SDS011;4642;51.364;6.788;2023-02-28T16:45:24;2.93;;;1.90;;
9214;SDS011;4642;51.364;6.788;2023-02-28T16:47:52;5.40;;;2.50;;
9214;SDS011;4642;51.364;6.788;2023-02-28T16:50:20;2.90;;;2.00;;
9214;SDS011;4642;51.364;6.788;2023-02-28T16:52:47;2.13;;;1.80;;
9214;SDS011;4642;51.364;6.788;2023-02-28T16:55:14;4.53;;;1.80;;
9214;SDS011;4642;51.364;6.788;2023-02-28T16:57:40;7.47;;;2.30;;
9214;SDS011;4642;51.364;6.788;2023-02-28T17:00:07;2.60;;;1.87;;
9214;SDS011;4642;51.364;6.788;2023-02-28T17:02:37;2.70;;;1.80;;
9214;SDS011;4642;51.364;6.788;2023-02-28T17:05:03;4.13;;;2.03;;
9214;SDS011;4642;51.364;6.788;2023-02-28T17:07:29;2.30;;;2.00;;
9214;SDS011;4642;51.364;6.788;2023-02-28T17:09:55;2.63;;;2.00;;
9214;SDS011;4642;51.364;6.788;2023-02-28T17:12:20;4.30;;;2.40;;
9214;SDS011;4642;51.364;6.788;2023-02-28T17:14:46;2.20;;;1.73;;
9214;SDS011;4642;51.364;6.788;2023-02-28T17:17:15;3.33;;;2.10;;
9214;SDS011;4642;51.364;6.788;2023-02-28T17:19:43;2.70;;;2.20;;
9214;SDS011;4642;51.364;6.788;2023-02-28T17:22:09;3.13;;;2.00;;
9214;SDS011;4642;51.364;6.788;2023-02-28T17:24:35;3.83;;;2.30;;
9214;SDS011;4642;51.364;6.788;2023-02-28T17:27:00;3.90;;;2.00;;
9214;SDS011;4642;51.364;6.788;2023-02-28T17:29:26;3.83;;;2.40;;
9214;SDS011;4642;51.364;6.788;2023-02-28T17:31:52;2.10;;;1.70;;
9214;SDS011;4642;51.364;6.788;2023-02-28T17:34:18;4.93;;;2.13;;
9214;SDS011;4642;51.364;6.788;2023-02-28T17:36:45;2.03;;;1.77;;
9214;SDS011;4642;51.364;6.788;2023-02-28T17:39:12;2.90;;;2.10;;
9214;SDS011;4642;51.364;6.788;2023-02-28T17:41:42;3.63;;;2.67;;
9214;SDS011;4642;51.364;6.788;2023-02-28T17:44:08;3.33;;;2.17;;
9214;SDS011;4642;51.364;6.788;2023-02-28T17:46:34;2.63;;;1.73;;
9214;SDS011;4642;51.364;6.788;2023-02-28T17:49:00;4.73;;;2.20;;
9214;SDS011;4642;51.364;6.788;2023-02-28T17:51:26;3.30;;;1.60;;
9214;SDS011;4642;51.364;6.788;2023-02-28T17:53:52;2.93;;;1.83;;
9214;SDS011;4642;51.364;6.788;2023-02-28T17:56:22;4.20;;;1.93;;
9214;SDS011;4642;51.364;6.788;2023-02-28T17:58:50;3.40;;;1.80;;
9214;SDS011;4642;51.364;6.788;2023-02-28T18:01:17;3.97;;;2.00;;
9214;SDS011;4642;51.364;6.788;2023-02-28T18:03:43;2.37;;;1.73;;
9214;SDS011;4642;51.364;6.788;2023-02-28T18:06:14;1.87;;;1.63;;
9214;SDS011;4642;51.364;6.788;2023-02-28T18:08:47;1.67;;;1.50;;
9214;SDS011;4642;51.364;6.788;2023-02-28T18:11:13;2.43;;;1.90;;
9214;SDS011;4642;51.364;6.788;2023-02-28T18:13:48;2.53;;;1.97;;
9214;SDS011;4642;51.364;6.788;2023-02-28T18:16:17;2.27;;;1.90;;
9214;SDS011;4642;51.364;6.788;2023-02-28T18:18:43;2.17;;;1.90;;
9214;SDS011;4642;51.364;6.788;2023-02-28T18:21:09;3.07;;;1.93;;
9214;SDS011;4642;51.364;6.788;2023-02-28T18:23:37;2.27;;;1.80;;
9214;SDS011;4642;51.364;6.788;2023-02-28T18:26:09;2.80;;;1.83;;